Time;durP1;ratioP1;P1;durP2;ratioP2;P2;SDS_P1;SDS_P2;PMS_P1;PMS_P2;Temp;Humidity;BMP_temperature;BMP_pressure;BME280_temperature;BME280_humidity;BME280_pressure;Samples;Min_cycle;Max_cycle;Signal;HPM_P1;HPM_P2
2021/08/01 00:00:08;;;;;;;2.17;1.55;;;20.70;99.90;;;21.17;70.91;97048.22;172974;28;1101;-73
2021/08/01 00:00:15;;;;;;;2.40;1.58;;;20.70;99.90;;;21.17;70.94;97046.31;172869;28;1296;-73
2021/08/01 00:00:21;;;;;;;2.35;1.50;;;20.70;99.90;;;21.20;70.81;97053.97;172623;28;1326;-73
2021/08/01 00:00:27;;;;;;;2.20;1.46;;;20.70;99.90;;;21.18;70.83;97047.97;172080;28;1349;-73
2021/08/01 00:00:33;;;;;;;2.23;1.47;;;20.70;99.90;;;21.20;70.93;97048.50;170818;28;1139;-73
2021/08/01 00:00:39;;;;;;;2.05;1.38;;;20.70;99.90;;;21.20;70.90;97045.78;171447;28;1186;-73
2021/08/01 00:00:45;;;;;;;2.60;1.58;;;20.70;99.90;;;21.18;71.02;97042.50;172856;28;1517;-73
2021/08/01 00:00:52;;;;;;;3.58;1.60;;;20.70;99.90;;;21.20;70.87;97048.50;172248;28;1168;-73
2021/08/01 00:00:58;;;;;;;3.60;1.60;;;20.70;99.90;;;21.24;70.75;97056.22;171883;28;1386;-73
2021/08/01 00:01:05;;;;;;;4.20;1.60;;;20.70;99.90;;;21.19;70.70;97044.13;172157;28;1525;-73
2021/08/01 00:01:21;;;;;;;4.14;1.60;;;20.70;99.90;;;21.20;70.50;97050.41;171871;28;1323;-73
2021/08/01 00:01:27;;;;;;;3.24;1.52;;;20.70;99.90;;;21.17;70.35;97046.31;173510;28;1217;-73
2021/08/01 00:01:34;;;;;;;2.40;1.50;;;20.70;99.90;;;21.23;70.21;97060.03;172391;28;1700;-74
2021/08/01 00:01:39;;;;;;;2.85;1.55;;;20.70;99.90;;;21.11;70.47;97036.38;170827;28;1274;-73
2021/08/01 00:01:45;;;;;;;2.85;1.42;;;20.70;99.90;;;21.19;70.56;97046.84;172082;28;1263;-73
2021/08/01 00:01:51;;;;;;;2.83;1.45;;;20.70;99.90;;;21.19;70.26;97049.59;172978;28;1473;-73
2021/08/01 00:01:57;;;;;;;2.88;1.55;;;20.70;99.90;;;21.14;70.39;97038.63;172089;28;1111;-73
2021/08/01 00:02:04;;;;;;;2.78;1.50;;;20.70;99.90;;;21.18;70.35;97047.16;171783;28;1182;-73
2021/08/01 00:02:10;;;;;;;2.15;1.50;;;20.70;99.90;;;21.18;70.32;97042.50;171959;28;2212;-73
2021/08/01 00:02:15;;;;;;;2.45;1.55;;;20.70;99.90;;;21.23;70.13;97051.81;172208;28;1288;-73
2021/08/01 00:02:21;;;;;;;2.78;1.45;;;20.70;99.90;;;21.20;70.20;97048.50;172062;28;1577;-73
2021/08/01 00:02:27;;;;;;;2.60;1.40;;;20.70;99.90;;;21.17;70.32;97046.31;171446;28;1177;-73
2021/08/01 00:02:33;;;;;;;3.30;1.30;;;20.70;99.90;;;21.23;70.22;97051.81;172121;28;1235;-73
2021/08/01 00:02:40;;;;;;;3.72;1.35;;;20.70;99.90;;;21.08;70.04;97028.72;172270;28;1218;-73
2021/08/01 00:02:47;;;;;;;3.64;1.32;;;20.70;99.90;;;21.16;70.24;97041.94;172780;28;1300;-73
2021/08/01 00:02:54;;;;;;;3.20;1.30;;;20.70;99.90;;;21.20;69.77;97045.78;172231;28;1125;-73
2021/08/01 00:03:00;;;;;;;3.20;1.30;;;20.70;99.90;;;21.13;69.56;97033.41;172191;28;1038;-73
2021/08/01 00:03:06;;;;;;;1.95;1.25;;;20.70;99.90;;;21.16;69.76;97044.66;171979;28;1469;-73
2021/08/01 00:03:12;;;;;;;1.95;1.27;;;20.70;99.90;;;21.12;69.81;97031.75;173469;28;1150;-73
2021/08/01 00:03:18;;;;;;;2.03;1.23;;;20.70;99.90;;;21.15;70.08;97037.53;172684;28;1126;-73
2021/08/01 00:03:24;;;;;;;2.30;1.37;;;20.70;99.90;;;21.12;70.04;97031.75;172152;28;1425;-73
2021/08/01 00:03:31;;;;;;;2.28;1.42;;;20.70;99.90;;;21.15;70.09;97037.53;171457;28;1632;-73
2021/08/01 00:03:37;;;;;;;2.35;1.45;;;20.70;99.90;;;21.12;70.01;97029.00;171847;28;1660;-73
2021/08/01 00:03:42;;;;;;;2.42;1.40;;;20.70;99.90;;;21.13;70.23;97028.75;172820;28;1209;-73
2021/08/01 00:03:51;;;;;;;2.38;1.45;;;20.70;99.90;;;21.13;70.19;97031.50;172326;28;1540;-73
2021/08/01 00:03:57;;;;;;;3.50;1.40;;;20.70;99.90;;;21.14;69.88;97035.88;171538;28;1280;-73
2021/08/01 00:04:03;;;;;;;3.40;1.40;;;20.70;99.90;;;21.12;70.02;97032.56;171706;28;1420;-73
2021/08/01 00:04:09;;;;;;;3.33;1.40;;;20.60;99.90;;;21.13;70.22;97038.88;171649;28;1170;-73
2021/08/01 00:04:15;;;;;;;3.28;1.38;;;20.70;99.90;;;21.17;70.11;97034.53;171447;28;1331;-73
2021/08/01 00:04:21;;;;;;;3.05;1.33;;;20.70;99.90;;;21.16;70.28;97033.72;172223;28;1244;-73
2021/08/01 00:04:27;;;;;;;2.00;1.30;;;20.70;99.90;;;21.04;70.06;97013.06;171766;28;1200;-73
2021/08/01 00:04:33;;;;;;;2.10;1.30;;;20.70;99.90;;;21.15;69.93;97031.22;171522;28;1858;-73
2021/08/01 00:04:39;;;;;;;2.55;1.40;;;20.70;99.90;;;21.15;70.11;97034.78;171243;28;1261;-73
2021/08/01 00:04:45;;;;;;;2.43;1.40;;;20.70;99.90;;;21.11;70.06;97030.09;171525;28;1475;-73
2021/08/01 00:04:52;;;;;;;3.70;1.48;;;20.70;99.90;;;21.09;70.04;97030.34;171436;28;1213;-73
2021/08/01 00:04:58;;;;;;;3.72;1.44;;;20.70;99.90;;;21.14;70.34;97027.66;171861;28;1346;-73
2021/08/01 00:05:04;;;;;;;4.40;1.40;;;20.70;99.90;;;21.02;70.08;97009.78;172121;28;1053;-73
2021/08/01 00:05:12;;;;;;;4.17;1.37;;;20.70;99.90;;;21.08;70.13;97020.50;171971;28;1342;-73
2021/08/01 00:05:17;;;;;;;3.37;1.40;;;20.60;99.90;;;21.09;70.19;97027.59;172185;28;1450;-73
2021/08/01 00:05:24;;;;;;;3.00;1.40;;;20.60;99.90;;;21.12;70.53;97018.88;171996;28;1488;-73
2021/08/01 00:05:29;;;;;;;2.97;1.42;;;20.60;99.90;;;21.14;70.62;97027.66;172206;28;1183;-73
2021/08/01 00:05:35;;;;;;;2.85;1.60;;;20.60;99.90;;;21.09;70.56;97024.03;172033;28;1233;-73
2021/08/01 00:05:45;;;;;;;2.80;1.58;;;20.60;99.90;;;21.10;70.32;97020.22;172032;28;1245;-73
2021/08/01 00:05:51;;;;;;;2.64;1.51;;;20.60;99.90;;;21.08;70.44;97022.41;173253;28;1539;-73
2021/08/01 00:05:57;;;;;;;2.53;1.50;;;20.60;99.90;;;21.11;70.61;97027.34;172311;28;1159;-73
2021/08/01 00:06:03;;;;;;;2.15;1.40;;;20.60;99.90;;;21.03;70.48;97011.44;172030;28;1752;-73
2021/08/01 00:06:09;;;;;;;2.10;1.30;;;20.60;99.90;;;21.08;70.46;97020.50;172777;28;1213;-73
2021/08/01 00:06:16;;;;;;;2.04;1.28;;;20.60;99.90;;;21.09;70.67;97024.03;172791;28;1559;-73
2021/08/01 00:06:22;;;;;;;2.20;1.40;;;20.60;99.90;;;21.03;70.46;97012.28;172092;28;1430;-73
2021/08/01 00:06:28;;;;;;;2.20;1.40;;;20.60;99.90;;;21.07;70.56;97023.50;172116;28;1820;-73
2021/08/01 00:06:34;;;;;;;2.05;1.40;;;20.60;99.90;;;21.05;70.58;97021.03;172139;28;1379;-73
2021/08/01 00:06:40;;;;;;;1.90;1.50;;;20.60;99.90;;;21.02;70.48;97016.09;172070;28;1266;-73
2021/08/01 00:06:46;;;;;;;2.07;1.47;;;20.60;99.90;;;21.09;70.71;97033.09;171467;28;1204;-73
2021/08/01 00:06:52;;;;;;;2.03;1.40;;;20.60;99.90;;;21.10;70.54;97031.16;172615;28;1202;-73
2021/08/01 00:06:58;;;;;;;2.70;1.38;;;20.60;99.90;;;21.07;70.91;97024.34;172569;28;1604;-73
2021/08/01 00:07:04;;;;;;;2.80;1.42;;;20.60;99.90;;;21.05;70.90;97029.22;172752;28;1185;-73
2021/08/01 00:07:10;;;;;;;3.30;1.57;;;20.60;99.90;;;21.06;70.70;97022.69;172070;28;1316;-73
2021/08/01 00:07:16;;;;;;;3.38;1.60;;;20.60;99.90;;;21.07;70.63;97032.53;171582;28;1004;-73
2021/08/01 00:07:22;;;;;;;3.65;1.60;;;20.60;99.90;;;21.03;70.85;97017.75;171085;28;1284;-73
2021/08/01 00:07:28;;;;;;;3.17;1.50;;;20.60;99.90;;;21.10;70.78;97031.16;172195;28;1180;-73
2021/08/01 00:07:36;;;;;;;3.20;1.47;;;20.60;99.90;;;21.06;70.80;97022.69;172573;28;1229;-73
2021/08/01 00:07:42;;;;;;;2.87;1.37;;;20.60;99.90;;;21.04;70.85;97022.09;172197;28;1046;-74
2021/08/01 00:07:48;;;;;;;2.72;1.40;;;20.60;99.90;;;21.03;70.92;97015.00;171900;28;1479;-74
2021/08/01 00:07:54;;;;;;;3.10;1.50;;;20.60;99.90;;;21.06;70.78;97024.59;172848;28;1161;-73
2021/08/01 00:08:00;;;;;;;2.95;1.52;;;20.60;99.90;;;21.05;70.73;97023.75;172669;28;1241;-73
2021/08/01 00:08:06;;;;;;;2.80;1.50;;;20.60;99.90;;;21.02;71.13;97018.84;172163;28;1354;-72
2021/08/01 00:08:12;;;;;;;2.93;1.50;;;20.60;99.90;;;21.05;70.82;97026.50;172218;28;1362;-73
2021/08/01 00:08:18;;;;;;;3.33;1.40;;;20.60;99.90;;;21.08;70.86;97033.38;172083;28;1342;-73
2021/08/01 00:08:24;;;;;;;2.88;1.25;;;20.60;99.90;;;21.07;70.72;97032.53;172711;28;1490;-73
2021/08/01 00:08:30;;;;;;;2.95;1.20;;;20.60;99.90;;;21.10;70.80;97034.72;172471;28;2129;-73
2021/08/01 00:08:39;;;;;;;3.10;1.27;;;20.60;99.90;;;21.08;70.66;97036.94;173419;28;1448;-73
2021/08/01 00:08:45;;;;;;;2.69;1.23;;;20.60;99.90;;;21.05;70.80;97031.16;172846;28;1388;-73
2021/08/01 00:08:52;;;;;;;2.33;1.37;;;20.60;99.90;;;21.06;70.75;97035.53;172065;28;1425;-73
2021/08/01 00:08:58;;;;;;;2.43;1.40;;;20.60;99.90;;;21.08;70.45;97031.47;171337;28;1041;-74
2021/08/01 00:09:04;;;;;;;2.73;1.40;;;20.60;99.90;;;21.10;70.71;97040.22;171431;28;1053;-73
2021/08/01 00:09:10;;;;;;;3.20;1.40;;;20.60;99.90;;;21.08;70.44;97042.41;171158;28;1198;-72
2021/08/01 00:09:19;;;;;;;3.03;1.40;;;20.60;99.90;;;21.10;70.20;97042.13;170834;28;1577;-73
2021/08/01 00:09:25;;;;;;;2.70;1.30;;;20.60;99.90;;;21.10;70.21;97050.31;170758;28;1380;-73
2021/08/01 00:09:31;;;;;;;2.60;1.30;;;20.60;99.90;;;21.03;70.50;97027.88;171573;28;1032;-73
2021/08/01 00:09:37;;;;;;;1.80;1.23;;;20.60;99.90;;;21.04;70.37;97035.78;171171;28;1295;-73
2021/08/01 00:09:43;;;;;;;1.88;1.28;;;20.60;99.90;;;21.09;70.80;97038.56;171377;28;1039;-73
2021/08/01 00:09:49;;;;;;;1.80;1.30;;;20.60;99.90;;;21.01;70.26;97030.03;171888;28;1214;-73
2021/08/01 00:09:59;;;;;;;2.67;1.30;;;20.60;99.90;;;21.04;70.28;97027.56;172849;28;1211;-73
2021/08/01 00:10:08;;;;;;;2.67;1.27;;;20.60;99.90;;;21.05;70.41;97031.97;172113;28;1079;-73
2021/08/01 00:10:15;;;;;;;2.67;1.30;;;20.60;99.90;;;20.98;70.39;97030.56;171147;28;1271;-73
2021/08/01 00:10:20;;;;;;;2.80;1.40;;;20.60;99.90;;;21.08;70.49;97039.66;171601;28;1219;-73
2021/08/01 00:10:27;;;;;;;2.22;1.45;;;20.60;99.90;;;21.06;70.54;97035.53;171107;28;1559;-73
2021/08/01 00:10:32;;;;;;;2.43;1.50;;;20.60;99.90;;;21.07;70.46;97038.00;172239;28;1053;-73
2021/08/01 00:10:39;;;;;;;2.45;1.45;;;20.60;99.90;;;21.08;70.63;97036.94;171951;28;1305;-73
2021/08/01 00:10:45;;;;;;;3.12;1.80;;;20.60;99.90;;;21.05;70.52;97029.22;172739;28;1463;-73
2021/08/01 00:10:57;;;;;;;3.03;1.77;;;20.60;99.90;;;21.13;70.67;97044.34;174500;28;1444;-73
2021/08/01 00:11:02;;;;;;;3.01;1.87;;;20.60;99.90;;;21.09;70.51;97038.56;173436;28;1226;-73
2021/08/01 00:11:09;;;;;;;3.05;2.03;;;20.60;99.90;;;21.12;70.47;97043.53;173319;28;1392;-73
2021/08/01 00:11:15;;;;;;;2.38;1.63;;;20.60;99.90;;;21.10;70.65;97037.47;172251;28;1133;-73
2021/08/01 00:11:21;;;;;;;2.30;1.55;;;20.60;99.90;;;21.06;70.74;97027.31;172410;28;1263;-73
2021/08/01 00:11:27;;;;;;;2.13;1.40;;;20.60;99.90;;;21.10;70.79;97034.72;170869;28;1115;-73
2021/08/01 00:11:33;;;;;;;2.08;1.40;;;20.60;99.90;;;21.05;70.73;97026.50;173097;28;1101;-73
2021/08/01 00:11:39;;;;;;;1.70;1.20;;;20.60;99.90;;;21.11;70.67;97038.31;172884;28;1045;-73
2021/08/01 00:11:45;;;;;;;1.65;1.17;;;20.60;99.90;;;21.03;70.57;97028.69;173312;28;1181;-73
2021/08/01 00:11:51;;;;;;;1.60;1.17;;;20.60;99.90;;;21.06;70.89;97033.63;173389;28;1427;-74
2021/08/01 00:11:57;;;;;;;1.52;1.20;;;20.60;99.90;;;21.07;70.61;97028.97;172641;28;1338;-73
2021/08/01 00:12:03;;;;;;;1.97;1.17;;;20.60;99.90;;;21.09;70.91;97033.09;172128;28;1420;-73
2021/08/01 00:12:09;;;;;;;2.03;1.17;;;20.60;99.90;;;21.09;70.77;97027.59;171884;28;1742;-73
2021/08/01 00:12:17;;;;;;;2.42;1.20;;;20.60;99.90;;;21.03;70.79;97020.47;171881;28;1393;-73
2021/08/01 00:12:23;;;;;;;2.52;1.30;;;20.60;99.90;;;21.04;71.14;97024.00;172800;28;1343;-73
2021/08/01 00:12:29;;;;;;;2.45;1.33;;;20.50;99.90;;;21.10;70.97;97033.91;172635;28;1235;-73
2021/08/01 00:12:35;;;;;;;2.30;1.40;;;20.60;99.90;;;21.09;71.01;97037.72;171512;28;1052;-73
2021/08/01 00:12:45;;;;;;;2.28;1.40;;;20.60;99.90;;;21.07;70.98;97035.28;171680;28;1441;-73
2021/08/01 00:12:51;;;;;;;1.83;1.30;;;20.60;99.90;;;21.06;71.00;97027.31;172056;28;1543;-73
2021/08/01 00:12:57;;;;;;;1.98;1.35;;;20.60;99.90;;;21.07;71.16;97027.06;172671;28;1358;-73
2021/08/01 00:13:03;;;;;;;1.70;1.25;;;20.60;99.90;;;21.09;71.08;97026.78;173381;28;1184;-73
2021/08/01 00:13:09;;;;;;;1.85;1.20;;;20.60;99.90;;;21.09;70.92;97030.34;171789;28;2099;-73
2021/08/01 00:13:15;;;;;;;2.55;1.17;;;20.60;99.90;;;21.00;70.88;97018.25;172844;28;1125;-73
2021/08/01 00:13:21;;;;;;;2.83;1.10;;;20.60;99.90;;;21.05;70.79;97026.50;173597;28;1454;-73
2021/08/01 00:13:27;;;;;;;2.75;1.10;;;20.60;99.90;;;21.03;70.87;97022.41;174290;28;1214;-73
2021/08/01 00:13:33;;;;;;;2.70;1.10;;;20.60;99.90;;;21.08;71.08;97030.63;172556;28;1440;-73
2021/08/01 00:13:39;;;;;;;3.15;1.10;;;20.60;99.90;;;21.10;70.88;97028.44;170835;28;1385;-73
2021/08/01 00:13:45;;;;;;;2.73;1.20;;;20.60;99.90;;;21.07;70.88;97026.25;171961;28;1499;-73
2021/08/01 00:13:51;;;;;;;2.87;1.20;;;20.60;99.90;;;21.02;71.01;97018.84;171350;28;1400;-73
2021/08/01 00:13:57;;;;;;;3.03;1.25;;;20.60;99.90;;;21.06;70.99;97019.94;172019;28;1273;-73
2021/08/01 00:14:03;;;;;;;3.08;1.30;;;20.60;99.90;;;21.06;71.10;97021.84;172513;28;1367;-73
2021/08/01 00:14:09;;;;;;;2.80;1.30;;;20.60;99.90;;;21.08;71.01;97020.50;172772;28;1429;-73
2021/08/01 00:14:15;;;;;;;3.03;1.40;;;20.60;99.90;;;21.08;70.93;97020.50;172632;28;1407;-73
2021/08/01 00:14:21;;;;;;;3.17;1.48;;;20.60;99.90;;;21.08;70.76;97026.00;172276;28;1190;-73
2021/08/01 00:14:27;;;;;;;3.03;1.50;;;20.60;99.90;;;21.06;70.83;97022.69;171711;28;1334;-73
2021/08/01 00:14:33;;;;;;;2.92;1.50;;;20.60;99.90;;;21.08;70.81;97031.47;171562;28;1160;-73
2021/08/01 00:14:39;;;;;;;2.63;1.47;;;20.60;99.90;;;21.06;70.84;97024.59;171842;28;1234;-73
2021/08/01 00:14:45;;;;;;;2.20;1.45;;;20.60;99.90;;;20.93;71.14;97008.66;173567;28;1100;-73
2021/08/01 00:14:52;;;;;;;2.28;1.40;;;20.60;99.90;;;21.08;71.16;97039.66;174529;28;1244;-73
2021/08/01 00:14:59;;;;;;;3.17;1.40;;;20.60;99.90;;;21.02;71.04;97024.31;173431;28;1178;-73
2021/08/01 00:15:06;;;;;;;3.68;1.50;;;20.60;99.90;;;21.03;71.04;97019.66;171556;28;1330;-73
2021/08/01 00:15:13;;;;;;;3.72;1.50;;;20.60;99.90;;;21.02;71.01;97020.75;172553;28;1333;-73
2021/08/01 00:15:19;;;;;;;3.73;1.50;;;20.60;99.90;;;21.05;70.88;97025.66;174150;28;1482;-73
2021/08/01 00:15:25;;;;;;;2.55;1.40;;;20.50;99.90;;;20.98;70.83;97014.97;172165;28;1281;-73
2021/08/01 00:15:31;;;;;;;2.23;1.40;;;20.60;99.90;;;21.05;70.44;97031.16;172701;28;1846;-73
2021/08/01 00:15:37;;;;;;;1.95;1.33;;;20.60;99.90;;;21.04;70.52;97030.31;172832;28;1623;-73
2021/08/01 00:15:43;;;;;;;2.00;1.30;;;20.50;99.90;;;21.05;70.76;97029.22;172829;28;1187;-73
2021/08/01 00:15:49;;;;;;;2.28;1.30;;;20.60;99.90;;;21.08;70.49;97027.91;172874;28;1229;-73
2021/08/01 00:15:55;;;;;;;2.33;1.25;;;20.60;99.90;;;21.06;70.53;97021.84;172218;28;1103;-73
2021/08/01 00:16:01;;;;;;;3.35;1.30;;;20.60;99.90;;;21.07;70.36;97031.72;171725;28;1360;-73
2021/08/01 00:16:07;;;;;;;3.67;1.37;;;20.60;99.90;;;20.97;70.76;97018.78;171424;28;1554;-73
2021/08/01 00:16:13;;;;;;;3.75;1.55;;;20.60;99.90;;;21.02;70.77;97027.03;171294;28;1445;-73
2021/08/01 00:16:21;;;;;;;3.47;1.58;;;20.50;99.90;;;21.05;70.73;97026.50;173475;28;1339;-73
2021/08/01 00:16:27;;;;;;;3.78;1.62;;;20.60;99.90;;;21.05;70.71;97033.88;173342;28;2273;-73
2021/08/01 00:16:33;;;;;;;3.33;1.60;;;20.60;99.90;;;21.00;70.82;97022.91;174133;28;1251;-73
2021/08/01 00:16:39;;;;;;;3.00;1.45;;;20.60;99.90;;;20.93;70.85;97023.13;172805;28;1619;-73
2021/08/01 00:16:45;;;;;;;2.83;1.30;;;20.60;99.90;;;20.99;70.90;97024.81;173374;28;1224;-73
2021/08/01 00:16:51;;;;;;;2.72;1.30;;;20.60;99.90;;;20.99;71.00;97024.81;174233;28;1309;-73
2021/08/01 00:16:58;;;;;;;1.97;1.33;;;20.60;99.90;;;20.97;70.90;97024.28;172276;28;1032;-73
2021/08/01 00:17:05;;;;;;;2.02;1.30;;;20.50;99.90;;;21.03;71.04;97025.13;170771;28;1572;-73
2021/08/01 00:17:10;;;;;;;2.76;1.40;;;20.50;99.90;;;21.03;71.10;97025.13;172107;28;1605;-74
2021/08/01 00:17:16;;;;;;;2.77;1.43;;;20.60;99.90;;;20.98;71.06;97016.88;172814;28;1510;-74
2021/08/01 00:17:23;;;;;;;3.00;1.40;;;20.50;99.90;;;20.99;71.06;97026.72;173886;28;1429;-73
2021/08/01 00:17:30;;;;;;;3.53;1.40;;;20.50;99.90;;;21.03;71.08;97027.88;172461;28;1922;-73
2021/08/01 00:17:36;;;;;;;2.63;1.23;;;20.50;99.90;;;20.95;71.23;97020.97;172980;28;1649;-74
2021/08/01 00:17:42;;;;;;;2.50;1.17;;;20.50;99.90;;;20.98;71.45;97025.94;171349;28;1336;-73
2021/08/01 00:17:48;;;;;;;2.60;1.10;;;20.50;99.90;;;21.00;71.57;97042.06;172542;28;1438;-73
2021/08/01 00:17:54;;;;;;;2.10;1.13;;;20.50;99.90;;;20.99;71.70;97029.47;174209;28;1136;-73
2021/08/01 00:18:02;;;;;;;2.10;1.20;;;20.50;99.90;;;20.97;71.77;97023.44;172643;28;1427;-73
2021/08/01 00:18:08;;;;;;;2.28;1.27;;;20.50;99.90;;;21.00;71.60;97029.19;172695;28;1673;-73
2021/08/01 00:18:14;;;;;;;2.60;1.40;;;20.50;99.90;;;20.97;71.40;97021.53;171431;28;1309;-73
2021/08/01 00:18:20;;;;;;;2.40;1.40;;;20.50;99.90;;;20.83;71.59;97006.66;172133;28;1968;-73
2021/08/01 00:18:26;;;;;;;2.45;1.40;;;20.50;99.90;;;20.93;71.68;97025.06;171916;28;1632;-73
2021/08/01 00:18:32;;;;;;;2.33;1.43;;;20.50;99.90;;;20.96;71.72;97035.47;172836;28;1634;-74
2021/08/01 00:18:38;;;;;;;2.42;1.40;;;20.50;99.90;;;20.92;71.58;97024.25;172315;28;1184;-73
2021/08/01 00:18:44;;;;;;;2.42;1.40;;;20.50;99.90;;;20.92;71.48;97023.41;172780;28;1540;-73
2021/08/01 00:18:51;;;;;;;2.60;1.53;;;20.50;99.90;;;20.95;71.71;97031.91;172019;28;1364;-73
2021/08/01 00:18:58;;;;;;;2.58;1.52;;;20.50;99.90;;;20.92;71.70;97031.63;173416;28;1370;-73
2021/08/01 00:19:04;;;;;;;2.38;1.50;;;20.50;99.90;;;20.93;71.56;97034.06;173263;28;1350;-73
2021/08/01 00:19:10;;;;;;;2.22;1.48;;;20.50;99.90;;;20.96;71.63;97033.56;172881;28;1082;-73
2021/08/01 00:19:16;;;;;;;2.88;1.50;;;20.50;99.90;;;20.94;71.68;97035.72;172630;28;1227;-73
2021/08/01 00:19:22;;;;;;;3.22;1.40;;;20.50;99.90;;;20.95;71.76;97034.66;172032;28;1830;-73
2021/08/01 00:19:28;;;;;;;3.20;1.40;;;20.50;99.90;;;20.92;71.59;97023.41;172094;28;1248;-73
2021/08/01 00:19:35;;;;;;;4.97;1.42;;;20.50;99.90;;;20.83;71.74;97014.06;171686;28;1785;-73
2021/08/01 00:19:41;;;;;;;5.13;1.50;;;20.50;99.90;;;20.94;71.58;97033.00;172030;28;1584;-73
2021/08/01 00:19:47;;;;;;;4.70;1.55;;;20.50;99.90;;;20.91;71.63;97028.06;171958;28;1586;-74
2021/08/01 00:19:53;;;;;;;4.70;1.60;;;20.50;99.90;;;20.89;71.41;97022.00;171392;28;1132;-73
2021/08/01 00:19:59;;;;;;;4.43;1.60;;;20.50;99.90;;;20.93;71.58;97025.88;171853;28;1315;-73
2021/08/01 00:20:07;;;;;;;3.05;1.52;;;20.50;99.90;;;20.88;71.56;97025.03;172245;28;1055;-73
2021/08/01 00:20:14;;;;;;;4.58;1.50;;;20.50;99.90;;;20.97;71.78;97037.94;171699;28;1576;-73
2021/08/01 00:20:20;;;;;;;4.77;1.40;;;20.50;99.90;;;20.93;71.89;97017.66;172269;28;1117;-73
2021/08/01 00:20:26;;;;;;;4.20;1.38;;;20.50;99.90;;;20.93;71.80;97028.59;171834;28;1454;-73
2021/08/01 00:20:32;;;;;;;4.35;1.40;;;20.50;99.90;;;20.98;71.78;97036.88;172194;28;1038;-73
2021/08/01 00:20:38;;;;;;;3.60;1.40;;;20.50;99.90;;;20.94;71.85;97027.53;171658;28;1932;-73
2021/08/01 00:20:45;;;;;;;2.47;1.40;;;20.50;99.90;;;20.92;72.08;97020.69;171299;28;1444;-73
2021/08/01 00:20:50;;;;;;;2.33;1.50;;;20.50;99.90;;;20.95;71.79;97031.91;172375;28;1309;-73
2021/08/01 00:20:56;;;;;;;2.28;1.50;;;20.50;99.90;;;20.91;71.71;97025.31;173449;28;1218;-73
2021/08/01 00:21:04;;;;;;;2.33;1.52;;;20.50;99.90;;;20.96;71.95;97033.56;172420;28;1849;-73
2021/08/01 00:21:10;;;;;;;2.46;1.60;;;20.50;99.90;;;20.83;71.88;97006.66;174304;28;1697;-73
2021/08/01 00:21:16;;;;;;;2.33;1.60;;;20.50;99.90;;;20.93;72.03;97023.13;173416;28;1256;-73
2021/08/01 00:21:22;;;;;;;2.20;1.50;;;20.50;99.90;;;20.91;71.93;97019.03;172675;28;1313;-73
2021/08/01 00:21:28;;;;;;;2.15;1.50;;;20.50;99.90;;;20.96;72.04;97032.72;172768;28;1787;-73
2021/08/01 00:21:34;;;;;;;2.00;1.40;;;20.50;99.90;;;20.95;71.99;97029.16;172569;28;1284;-73
2021/08/01 00:21:39;;;;;;;2.00;1.40;;;20.50;99.90;;;20.89;71.86;97022.00;173548;28;1306;-73
2021/08/01 00:21:45;;;;;;;2.10;1.45;;;20.50;99.90;;;20.92;72.07;97021.50;172497;28;1818;-73
2021/08/01 00:21:51;;;;;;;2.10;1.50;;;20.50;99.90;;;20.90;72.06;97018.19;172110;28;1207;-73
2021/08/01 00:21:57;;;;;;;2.33;1.50;;;20.50;99.90;;;20.92;72.01;97021.50;172962;28;1257;-72
2021/08/01 00:22:03;;;;;;;2.35;1.35;;;20.50;99.90;;;20.92;72.20;97024.25;172195;28;1314;-74
2021/08/01 00:22:10;;;;;;;2.63;1.40;;;20.50;99.90;;;20.92;72.17;97023.41;172208;28;1505;-73
2021/08/01 00:22:16;;;;;;;2.80;1.40;;;20.50;99.90;;;20.94;72.08;97030.25;173453;28;1520;-73
2021/08/01 00:22:22;;;;;;;2.80;1.40;;;20.50;99.90;;;20.94;72.00;97026.69;171777;28;1366;-73
2021/08/01 00:22:28;;;;;;;3.20;1.35;;;20.40;99.90;;;20.93;72.03;97030.53;172581;28;1091;-73
2021/08/01 00:22:34;;;;;;;3.08;1.40;;;20.50;99.90;;;20.90;72.13;97025.56;172128;28;1758;-73
2021/08/01 00:22:41;;;;;;;3.07;1.40;;;20.40;99.90;;;20.92;71.99;97024.25;172257;28;1381;-73
2021/08/01 00:22:47;;;;;;;2.77;1.30;;;20.40;99.90;;;20.92;72.11;97026.16;171575;28;1704;-73
2021/08/01 00:22:53;;;;;;;3.03;1.23;;;20.40;99.90;;;20.96;72.04;97028.09;172216;28;1226;-73
2021/08/01 00:23:01;;;;;;;2.72;1.30;;;20.40;99.90;;;20.97;72.12;97020.72;172219;28;1295;-73
2021/08/01 00:23:07;;;;;;;2.33;1.30;;;20.40;99.90;;;20.95;72.16;97034.66;172902;28;1482;-73
2021/08/01 00:23:13;;;;;;;2.30;1.27;;;20.40;99.90;;;20.94;72.13;97023.94;171777;28;1557;-73
2021/08/01 00:23:19;;;;;;;3.10;1.33;;;20.40;99.90;;;20.91;72.24;97022.59;172823;28;1179;-74
2021/08/01 00:23:25;;;;;;;3.05;1.40;;;20.40;99.90;;;20.96;72.33;97030.00;172788;28;1220;-74
2021/08/01 00:23:31;;;;;;;3.40;1.50;;;20.40;99.90;;;20.92;72.45;97024.25;171939;28;1267;-73
2021/08/01 00:23:37;;;;;;;3.88;1.55;;;20.40;99.90;;;20.91;72.27;97013.56;172901;28;1260;-73
2021/08/01 00:23:43;;;;;;;4.22;1.67;;;20.40;99.90;;;20.90;72.38;97018.19;171942;28;1285;-73
2021/08/01 00:23:49;;;;;;;3.30;1.65;;;20.40;99.90;;;20.92;72.14;97020.69;171553;28;1148;-74
2021/08/01 00:23:55;;;;;;;3.00;1.58;;;20.40;99.90;;;20.92;72.28;97020.69;171362;28;1336;-74
2021/08/01 00:24:01;;;;;;;2.58;1.50;;;20.40;99.90;;;20.95;72.39;97017.41;172090;28;1135;-73
2021/08/01 00:24:07;;;;;;;3.50;1.40;;;20.40;99.90;;;20.96;72.36;97019.06;171583;28;1577;-73
2021/08/01 00:24:13;;;;;;;3.03;1.23;;;20.40;99.90;;;20.92;72.38;97021.50;170911;28;1878;-73
2021/08/01 00:24:19;;;;;;;2.80;1.20;;;20.40;99.90;;;20.89;72.38;97019.28;172037;28;1515;-73
2021/08/01 00:24:24;;;;;;;3.08;1.23;;;20.40;99.90;;;20.92;72.34;97023.41;171935;28;1167;-73
2021/08/01 00:24:30;;;;;;;3.40;1.30;;;20.40;99.90;;;20.95;72.26;97020.13;172068;28;1242;-74
2021/08/01 00:24:36;;;;;;;2.45;1.30;;;20.40;99.90;;;20.98;72.22;97030.56;171293;28;1177;-74
2021/08/01 00:24:42;;;;;;;2.30;1.40;;;20.40;99.90;;;20.91;71.99;97021.75;171489;28;1688;-73
2021/08/01 00:24:48;;;;;;;2.50;1.40;;;20.40;99.90;;;20.94;72.03;97015.75;172032;28;1328;-73
2021/08/01 00:24:54;;;;;;;2.22;1.40;;;20.50;99.90;;;20.90;71.87;97010.00;171989;28;1206;-73
2021/08/01 00:25:00;;;;;;;1.98;1.25;;;20.40;99.90;;;20.96;71.96;97022.63;172214;28;1486;-73
2021/08/01 00:25:07;;;;;;;2.10;1.23;;;20.40;99.90;;;20.92;71.99;97013.28;172097;28;1855;-73
2021/08/01 00:25:13;;;;;;;1.97;1.20;;;20.40;99.90;;;20.98;72.01;97016.88;172788;28;1388;-73
2021/08/01 00:25:19;;;;;;;1.80;1.20;;;20.40;99.90;;;20.97;71.89;97015.22;171841;28;1259;-73
2021/08/01 00:25:26;;;;;;;1.85;1.20;;;20.40;99.90;;;20.95;72.05;97012.75;171462;28;1543;-73
2021/08/01 00:25:31;;;;;;;2.07;1.20;;;20.50;99.90;;;20.90;71.95;97010.00;172311;28;1355;-73
2021/08/01 00:25:38;;;;;;;1.85;1.20;;;20.40;99.90;;;20.91;72.03;97005.34;171559;28;1765;-73
2021/08/01 00:25:44;;;;;;;1.80;1.17;;;20.40;99.90;;;20.87;72.07;97001.50;171855;28;1449;-73
2021/08/01 00:25:50;;;;;;;2.00;1.23;;;20.40;99.90;;;20.92;72.02;97010.56;172640;28;1502;-73
2021/08/01 00:25:58;;;;;;;2.20;1.30;;;20.40;99.90;;;20.98;72.08;97020.47;172649;28;1558;-73
2021/08/01 00:26:04;;;;;;;2.04;1.30;;;20.40;99.90;;;20.93;71.93;97001.25;172335;28;1588;-73
2021/08/01 00:26:09;;;;;;;2.00;1.33;;;20.40;99.90;;;20.93;71.88;97005.91;171953;28;1371;-73
2021/08/01 00:26:15;;;;;;;2.47;1.40;;;20.40;99.90;;;20.98;72.06;97014.16;171880;28;1912;-73
2021/08/01 00:26:21;;;;;;;3.17;1.42;;;20.40;99.90;;;20.94;72.00;97002.06;172108;28;1053;-73
2021/08/01 00:26:27;;;;;;;4.45;1.42;;;20.40;99.90;;;20.94;72.09;97008.38;172106;28;1699;-73
2021/08/01 00:26:33;;;;;;;4.45;1.50;;;20.40;99.90;;;20.96;71.99;97013.59;172745;28;1498;-73
2021/08/01 00:26:39;;;;;;;4.90;1.50;;;20.40;99.90;;;20.95;72.15;97006.47;172027;28;1408;-73
2021/08/01 00:26:45;;;;;;;4.65;1.60;;;20.40;99.90;;;20.99;72.10;97013.03;172158;28;1047;-73
2021/08/01 00:26:51;;;;;;;3.90;1.45;;;20.50;99.90;;;20.99;72.13;97013.03;172221;28;1294;-73
2021/08/01 00:26:57;;;;;;;2.50;1.40;;;20.40;99.90;;;20.95;72.18;97010.03;171638;28;1087;-73
2021/08/01 00:27:04;;;;;;;2.58;1.40;;;20.50;99.90;;;20.92;72.22;97007.00;171604;28;1298;-73
2021/08/01 00:27:11;;;;;;;2.23;1.37;;;20.50;99.90;;;20.95;72.32;97009.19;172569;28;1311;-73